KSPA/SPA METAR and TAF weather

Enter ICAO airport designator
Station Type Date Time Source
KSPA METAR 2021/05/15 01:35 UTC NOAA

KSPA 150135Z AUTO 04007KT 10SM BKN095 16/06 A3025 RMK AO2


Station Type Date Time Source
KSPA Decoded METAR 2021/05/15 01:35 UTC NOAA

Spartanburg Memorial, SC, United States (KSPA) 34-55N 081-57W
May 14, 2021 - 09:35 PM EDT / 2021.05.15 0135 UTC
Wind: from the NE (040 degrees) at 8 MPH (7 KT):0
Visibility: 10 mile(s):0
Sky conditions: mostly cloudy
Temperature: 60 F (16 C)
Dew Point: 42 F (6 C)
Relative Humidity: 51%
Pressure (altimeter): 30.25 in. Hg (1024 hPa)
ob: KSPA 150135Z AUTO 04007KT 10SM BKN095 16/06 A3025 RMK AO2
cycle: 1

Station Type Date Time Source
KSPA TAF UTC NOAA

Error!

Example: see airport list